sensor_id;sensor_type;location;lat;lon;timestamp;P1;durP1;ratioP1;P2;durP2;ratioP2
20146;SDS011;10234;50.856;15.716;2022-10-16T00:01:25;9.02;;;7.90;;
20146;SDS011;10234;50.856;15.716;2022-10-16T00:03:54;10.88;;;7.50;;
20146;SDS011;10234;50.856;15.716;2022-10-16T00:06:21;9.18;;;7.63;;
20146;SDS011;10234;50.856;15.716;2022-10-16T00:08:49;9.07;;;6.50;;
20146;SDS011;10234;50.856;15.716;2022-10-16T00:11:17;8.90;;;6.85;;
20146;SDS011;10234;50.856;15.716;2022-10-16T00:13:46;7.03;;;6.00;;
20146;SDS011;10234;50.856;15.716;2022-10-16T00:16:15;5.82;;;4.80;;
20146;SDS011;10234;50.856;15.716;2022-10-16T00:18:42;3.53;;;2.72;;
20146;SDS011;10234;50.856;15.716;2022-10-16T00:21:12;2.63;;;2.10;;
20146;SDS011;10234;50.856;15.716;2022-10-16T00:23:40;1.92;;;1.83;;
20146;SDS011;10234;50.856;15.716;2022-10-16T00:26:08;2.85;;;1.70;;
20146;SDS011;10234;50.856;15.716;2022-10-16T00:28:37;1.95;;;1.80;;
20146;SDS011;10234;50.856;15.716;2022-10-16T00:31:05;2.15;;;1.95;;
20146;SDS011;10234;50.856;15.716;2022-10-16T00:33:33;2.13;;;1.92;;
20146;SDS011;10234;50.856;15.716;2022-10-16T00:36:00;2.33;;;1.67;;
20146;SDS011;10234;50.856;15.716;2022-10-16T00:38:29;2.42;;;1.70;;
20146;SDS011;10234;50.856;15.716;2022-10-16T00:40:56;1.45;;;1.35;;
20146;SDS011;10234;50.856;15.716;2022-10-16T00:43:33;1.58;;;1.42;;
20146;SDS011;10234;50.856;15.716;2022-10-16T00:46:03;1.40;;;1.30;;
20146;SDS011;10234;50.856;15.716;2022-10-16T00:48:32;1.65;;;1.23;;
20146;SDS011;10234;50.856;15.716;2022-10-16T00:50:59;1.45;;;1.35;;
20146;SDS011;10234;50.856;15.716;2022-10-16T00:53:26;1.80;;;1.70;;
20146;SDS011;10234;50.856;15.716;2022-10-16T00:55:54;1.80;;;1.50;;
20146;SDS011;10234;50.856;15.716;2022-10-16T00:58:22;1.50;;;1.40;;
20146;SDS011;10234;50.856;15.716;2022-10-16T01:00:49;2.60;;;1.48;;
20146;SDS011;10234;50.856;15.716;2022-10-16T01:03:23;1.45;;;1.35;;
20146;SDS011;10234;50.856;15.716;2022-10-16T01:05:55;1.80;;;1.52;;
20146;SDS011;10234;50.856;15.716;2022-10-16T01:08:32;1.65;;;1.55;;
20146;SDS011;10234;50.856;15.716;2022-10-16T01:11:06;1.98;;;1.88;;
20146;SDS011;10234;50.856;15.716;2022-10-16T01:13:41;1.40;;;1.30;;
20146;SDS011;10234;50.856;15.716;2022-10-16T01:16:12;1.90;;;1.80;;
20146;SDS011;10234;50.856;15.716;2022-10-16T01:18:42;1.30;;;1.20;;
20146;SDS011;10234;50.856;15.716;2022-10-16T01:21:12;1.10;;;1.10;;
20146;SDS011;10234;50.856;15.716;2022-10-16T01:23:47;1.33;;;1.23;;
20146;SDS011;10234;50.856;15.716;2022-10-16T01:26:24;0.95;;;0.90;;
20146;SDS011;10234;50.856;15.716;2022-10-16T01:29:05;1.20;;;1.10;;
20146;SDS011;10234;50.856;15.716;2022-10-16T01:31:39;1.23;;;0.90;;
20146;SDS011;10234;50.856;15.716;2022-10-16T01:34:12;1.15;;;1.15;;
20146;SDS011;10234;50.856;15.716;2022-10-16T01:36:44;1.40;;;1.17;;
20146;SDS011;10234;50.856;15.716;2022-10-16T01:39:13;2.25;;;2.08;;
20146;SDS011;10234;50.856;15.716;2022-10-16T01:41:43;2.72;;;2.00;;
20146;SDS011;10234;50.856;15.716;2022-10-16T01:44:15;1.63;;;1.52;;
20146;SDS011;10234;50.856;15.716;2022-10-16T01:46:46;2.47;;;2.00;;
20146;SDS011;10234;50.856;15.716;2022-10-16T01:49:15;2.55;;;2.35;;
20146;SDS011;10234;50.856;15.716;2022-10-16T01:51:44;2.95;;;2.13;;
20146;SDS011;10234;50.856;15.716;2022-10-16T01:54:14;2.58;;;2.13;;
20146;SDS011;10234;50.856;15.716;2022-10-16T01:56:44;3.95;;;2.10;;
20146;SDS011;10234;50.856;15.716;2022-10-16T01:59:13;2.30;;;2.08;;
20146;SDS011;10234;50.856;15.716;2022-10-16T02:01:45;2.33;;;2.00;;
20146;SDS011;10234;50.856;15.716;2022-10-16T02:04:17;2.67;;;2.30;;
20146;SDS011;10234;50.856;15.716;2022-10-16T02:06:48;2.63;;;2.42;;
20146;SDS011;10234;50.856;15.716;2022-10-16T02:09:15;2.70;;;2.50;;
20146;SDS011;10234;50.856;15.716;2022-10-16T02:11:42;3.08;;;2.53;;
20146;SDS011;10234;50.856;15.716;2022-10-16T02:14:10;2.65;;;2.45;;
20146;SDS011;10234;50.856;15.716;2022-10-16T02:16:40;2.63;;;2.42;;
20146;SDS011;10234;50.856;15.716;2022-10-16T02:19:09;3.58;;;2.25;;
20146;SDS011;10234;50.856;15.716;2022-10-16T02:21:39;3.13;;;2.20;;
20146;SDS011;10234;50.856;15.716;2022-10-16T02:24:11;2.10;;;1.90;;
20146;SDS011;10234;50.856;15.716;2022-10-16T02:26:46;2.90;;;1.85;;
20146;SDS011;10234;50.856;15.716;2022-10-16T02:29:19;2.42;;;2.25;;
20146;SDS011;10234;50.856;15.716;2022-10-16T02:31:52;2.15;;;1.98;;
20146;SDS011;10234;50.856;15.716;2022-10-16T02:34:22;2.42;;;2.22;;
20146;SDS011;10234;50.856;15.716;2022-10-16T02:36:51;2.42;;;2.22;;
20146;SDS011;10234;50.856;15.716;2022-10-16T02:39:19;1.67;;;1.58;;
20146;SDS011;10234;50.856;15.716;2022-10-16T02:41:47;1.45;;;1.30;;
20146;SDS011;10234;50.856;15.716;2022-10-16T02:44:14;1.75;;;1.65;;
20146;SDS011;10234;50.856;15.716;2022-10-16T02:46:41;1.23;;;1.13;;
20146;SDS011;10234;50.856;15.716;2022-10-16T02:49:09;1.67;;;1.58;;
20146;SDS011;10234;50.856;15.716;2022-10-16T02:51:36;0.90;;;0.90;;
20146;SDS011;10234;50.856;15.716;2022-10-16T02:54:03;0.80;;;0.80;;
20146;SDS011;10234;50.856;15.716;2022-10-16T02:56:30;0.90;;;0.90;;
20146;SDS011;10234;50.856;15.716;2022-10-16T02:58:57;0.90;;;0.90;;
20146;SDS011;10234;50.856;15.716;2022-10-16T03:01:24;0.75;;;0.75;;
20146;SDS011;10234;50.856;15.716;2022-10-16T03:03:51;0.80;;;0.80;;
20146;SDS011;10234;50.856;15.716;2022-10-16T03:06:19;1.27;;;0.70;;
20146;SDS011;10234;50.856;15.716;2022-10-16T03:08:46;0.70;;;0.70;;
20146;SDS011;10234;50.856;15.716;2022-10-16T03:11:13;1.50;;;0.70;;
20146;SDS011;10234;50.856;15.716;2022-10-16T03:13:40;0.60;;;0.60;;
20146;SDS011;10234;50.856;15.716;2022-10-16T03:16:07;0.70;;;0.70;;
20146;SDS011;10234;50.856;15.716;2022-10-16T03:18:34;0.63;;;0.63;;
20146;SDS011;10234;50.856;15.716;2022-10-16T03:21:01;0.63;;;0.63;;
20146;SDS011;10234;50.856;15.716;2022-10-16T03:23:30;1.83;;;0.80;;
20146;SDS011;10234;50.856;15.716;2022-10-16T03:25:57;1.55;;;0.88;;
20146;SDS011;10234;50.856;15.716;2022-10-16T03:28:24;1.15;;;1.15;;
20146;SDS011;10234;50.856;15.716;2022-10-16T03:30:51;1.70;;;1.10;;
20146;SDS011;10234;50.856;15.716;2022-10-16T03:33:18;0.90;;;0.90;;
20146;SDS011;10234;50.856;15.716;2022-10-16T03:35:50;0.98;;;0.95;;
20146;SDS011;10234;50.856;15.716;2022-10-16T03:38:18;1.10;;;1.10;;
20146;SDS011;10234;50.856;15.716;2022-10-16T03:40:47;1.70;;;1.10;;
20146;SDS011;10234;50.856;15.716;2022-10-16T03:43:14;1.10;;;1.10;;
20146;SDS011;10234;50.856;15.716;2022-10-16T03:45:41;1.25;;;1.15;;
20146;SDS011;10234;50.856;15.716;2022-10-16T03:48:08;1.20;;;1.10;;
20146;SDS011;10234;50.856;15.716;2022-10-16T03:50:36;1.55;;;1.45;;
20146;SDS011;10234;50.856;15.716;2022-10-16T03:53:02;1.10;;;1.00;;
20146;SDS011;10234;50.856;15.716;2022-10-16T03:55:30;1.60;;;1.23;;
20146;SDS011;10234;50.856;15.716;2022-10-16T03:57:58;1.20;;;1.10;;
20146;SDS011;10234;50.856;15.716;2022-10-16T04:00:25;1.20;;;1.10;;
20146;SDS011;10234;50.856;15.716;2022-10-16T04:02:52;1.40;;;1.30;;
20146;SDS011;10234;50.856;15.716;2022-10-16T04:05:19;1.08;;;1.08;;
20146;SDS011;10234;50.856;15.716;2022-10-16T04:07:46;1.02;;;0.90;;
20146;SDS011;10234;50.856;15.716;2022-10-16T04:10:13;1.27;;;1.17;;
20146;SDS011;10234;50.856;15.716;2022-10-16T04:12:40;1.17;;;0.80;;
20146;SDS011;10234;50.856;15.716;2022-10-16T04:15:09;1.00;;;1.00;;
20146;SDS011;10234;50.856;15.716;2022-10-16T04:17:36;1.45;;;1.17;;
20146;SDS011;10234;50.856;15.716;2022-10-16T04:20:03;0.93;;;0.90;;
20146;SDS011;10234;50.856;15.716;2022-10-16T04:22:30;0.70;;;0.70;;
20146;SDS011;10234;50.856;15.716;2022-10-16T04:24:57;1.05;;;1.05;;
20146;SDS011;10234;50.856;15.716;2022-10-16T04:27:24;0.77;;;0.77;;
20146;SDS011;10234;50.856;15.716;2022-10-16T04:29:51;0.60;;;0.60;;
20146;SDS011;10234;50.856;15.716;2022-10-16T04:32:20;1.05;;;0.68;;
20146;SDS011;10234;50.856;15.716;2022-10-16T04:34:47;0.63;;;0.63;;
20146;SDS011;10234;50.856;15.716;2022-10-16T04:37:14;0.85;;;0.63;;
20146;SDS011;10234;50.856;15.716;2022-10-16T04:39:41;0.40;;;0.40;;
20146;SDS011;10234;50.856;15.716;2022-10-16T04:42:08;0.60;;;0.60;;
20146;SDS011;10234;50.856;15.716;2022-10-16T04:44:35;0.60;;;0.60;;
20146;SDS011;10234;50.856;15.716;2022-10-16T04:47:02;1.50;;;0.50;;
20146;SDS011;10234;50.856;15.716;2022-10-16T04:49:31;0.50;;;0.50;;
20146;SDS011;10234;50.856;15.716;2022-10-16T04:51:58;0.40;;;0.40;;
20146;SDS011;10234;50.856;15.716;2022-10-16T04:54:25;0.70;;;0.70;;
20146;SDS011;10234;50.856;15.716;2022-10-16T04:56:52;0.70;;;0.70;;
20146;SDS011;10234;50.856;15.716;2022-10-16T04:59:19;1.10;;;0.50;;
20146;SDS011;10234;50.856;15.716;2022-10-16T05:01:47;1.15;;;0.50;;
20146;SDS011;10234;50.856;15.716;2022-10-16T05:04:14;0.50;;;0.50;;
20146;SDS011;10234;50.856;15.716;2022-10-16T05:06:43;0.55;;;0.55;;
20146;SDS011;10234;50.856;15.716;2022-10-16T05:09:10;1.48;;;0.60;;
20146;SDS011;10234;50.856;15.716;2022-10-16T05:11:37;0.50;;;0.50;;
20146;SDS011;10234;50.856;15.716;2022-10-16T05:14:04;0.43;;;0.43;;
20146;SDS011;10234;50.856;15.716;2022-10-16T05:16:31;0.63;;;0.57;;
20146;SDS011;10234;50.856;15.716;2022-10-16T05:18:58;0.57;;;0.57;;
20146;SDS011;10234;50.856;15.716;2022-10-16T05:21:25;0.70;;;0.70;;
20146;SDS011;10234;50.856;15.716;2022-10-16T05:23:54;1.65;;;1.00;;
20146;SDS011;10234;50.856;15.716;2022-10-16T05:26:21;1.15;;;1.15;;
20146;SDS011;10234;50.856;15.716;2022-10-16T05:28:49;1.42;;;1.35;;
20146;SDS011;10234;50.856;15.716;2022-10-16T05:31:15;1.65;;;1.33;;
20146;SDS011;10234;50.856;15.716;2022-10-16T05:33:43;1.45;;;1.35;;
20146;SDS011;10234;50.856;15.716;2022-10-16T05:36:10;1.20;;;1.20;;
20146;SDS011;10234;50.856;15.716;2022-10-16T05:38:37;0.93;;;0.93;;
20146;SDS011;10234;50.856;15.716;2022-10-16T05:41:06;2.13;;;1.00;;
20146;SDS011;10234;50.856;15.716;2022-10-16T05:43:33;1.17;;;1.00;;
20146;SDS011;10234;50.856;15.716;2022-10-16T05:46:01;2.55;;;0.90;;
20146;SDS011;10234;50.856;15.716;2022-10-16T05:48:30;1.40;;;1.00;;
20146;SDS011;10234;50.856;15.716;2022-10-16T05:50:57;0.98;;;0.80;;
20146;SDS011;10234;50.856;15.716;2022-10-16T05:53:25;0.90;;;0.90;;
20146;SDS011;10234;50.856;15.716;2022-10-16T05:55:53;0.73;;;0.73;;
20146;SDS011;10234;50.856;15.716;2022-10-16T05:58:22;0.90;;;0.90;;
20146;SDS011;10234;50.856;15.716;2022-10-16T06:00:53;1.00;;;1.00;;
20146;SDS011;10234;50.856;15.716;2022-10-16T06:03:20;1.02;;;0.98;;
20146;SDS011;10234;50.856;15.716;2022-10-16T06:05:47;1.25;;;1.00;;
20146;SDS011;10234;50.856;15.716;2022-10-16T06:08:14;1.10;;;1.10;;
20146;SDS011;10234;50.856;15.716;2022-10-16T06:10:42;1.23;;;1.08;;
20146;SDS011;10234;50.856;15.716;2022-10-16T06:13:09;1.10;;;1.10;;
20146;SDS011;10234;50.856;15.716;2022-10-16T06:15:38;1.25;;;1.13;;
20146;SDS011;10234;50.856;15.716;2022-10-16T06:18:06;2.53;;;1.20;;
20146;SDS011;10234;50.856;15.716;2022-10-16T06:20:33;4.15;;;1.20;;
20146;SDS011;10234;50.856;15.716;2022-10-16T06:23:01;1.20;;;1.20;;
20146;SDS011;10234;50.856;15.716;2022-10-16T06:25:29;1.58;;;1.23;;
20146;SDS011;10234;50.856;15.716;2022-10-16T06:27:55;1.25;;;1.02;;
20146;SDS011;10234;50.856;15.716;2022-10-16T06:30:23;2.65;;;1.45;;
20146;SDS011;10234;50.856;15.716;2022-10-16T06:32:51;1.58;;;1.48;;
20146;SDS011;10234;50.856;15.716;2022-10-16T06:35:18;1.77;;;1.42;;
20146;SDS011;10234;50.856;15.716;2022-10-16T06:37:45;2.40;;;1.48;;
20146;SDS011;10234;50.856;15.716;2022-10-16T06:40:12;3.22;;;2.20;;
20146;SDS011;10234;50.856;15.716;2022-10-16T06:42:40;2.20;;;2.00;;
20146;SDS011;10234;50.856;15.716;2022-10-16T06:45:07;2.55;;;2.33;;
20146;SDS011;10234;50.856;15.716;2022-10-16T06:47:34;2.40;;;2.20;;
20146;SDS011;10234;50.856;15.716;2022-10-16T06:50:03;2.63;;;2.13;;
20146;SDS011;10234;50.856;15.716;2022-10-16T06:52:31;2.40;;;2.20;;
20146;SDS011;10234;50.856;15.716;2022-10-16T06:54:59;2.10;;;2.00;;
20146;SDS011;10234;50.856;15.716;2022-10-16T06:57:27;2.22;;;2.10;;
20146;SDS011;10234;50.856;15.716;2022-10-16T06:59:54;2.97;;;2.13;;
20146;SDS011;10234;50.856;15.716;2022-10-16T07:02:22;2.25;;;2.15;;
20146;SDS011;10234;50.856;15.716;2022-10-16T07:04:48;2.60;;;2.40;;
20146;SDS011;10234;50.856;15.716;2022-10-16T07:07:17;2.88;;;2.60;;
20146;SDS011;10234;50.856;15.716;2022-10-16T07:09:44;2.30;;;2.20;;
20146;SDS011;10234;50.856;15.716;2022-10-16T07:12:11;2.20;;;2.10;;
20146;SDS011;10234;50.856;15.716;2022-10-16T07:14:38;1.65;;;1.55;;
20146;SDS011;10234;50.856;15.716;2022-10-16T07:17:05;2.00;;;1.90;;
20146;SDS011;10234;50.856;15.716;2022-10-16T07:19:32;1.42;;;1.33;;
20146;SDS011;10234;50.856;15.716;2022-10-16T07:21:59;1.20;;;1.20;;
20146;SDS011;10234;50.856;15.716;2022-10-16T07:24:29;1.08;;;1.08;;
20146;SDS011;10234;50.856;15.716;2022-10-16T07:26:56;1.10;;;1.10;;
20146;SDS011;10234;50.856;15.716;2022-10-16T07:29:22;1.35;;;1.02;;
20146;SDS011;10234;50.856;15.716;2022-10-16T07:31:49;1.45;;;1.35;;
20146;SDS011;10234;50.856;15.716;2022-10-16T07:34:17;1.60;;;1.20;;
20146;SDS011;10234;50.856;15.716;2022-10-16T07:36:47;1.30;;;1.20;;
20146;SDS011;10234;50.856;15.716;2022-10-16T07:39:14;1.23;;;1.23;;
20146;SDS011;10234;50.856;15.716;2022-10-16T07:41:42;1.05;;;1.05;;
20146;SDS011;10234;50.856;15.716;2022-10-16T07:44:09;0.88;;;0.88;;
20146;SDS011;10234;50.856;15.716;2022-10-16T07:46:36;1.10;;;1.10;;
20146;SDS011;10234;50.856;15.716;2022-10-16T07:49:03;1.77;;;0.85;;
20146;SDS011;10234;50.856;15.716;2022-10-16T07:51:30;0.95;;;0.80;;
20146;SDS011;10234;50.856;15.716;2022-10-16T07:53:57;1.73;;;1.00;;
20146;SDS011;10234;50.856;15.716;2022-10-16T07:56:25;1.20;;;1.20;;
20146;SDS011;10234;50.856;15.716;2022-10-16T07:58:53;1.67;;;1.33;;
20146;SDS011;10234;50.856;15.716;2022-10-16T08:01:21;2.55;;;1.48;;
20146;SDS011;10234;50.856;15.716;2022-10-16T08:03:49;1.40;;;1.30;;
20146;SDS011;10234;50.856;15.716;2022-10-16T08:06:17;1.38;;;1.35;;
20146;SDS011;10234;50.856;15.716;2022-10-16T08:08:44;1.55;;;1.45;;
20146;SDS011;10234;50.856;15.716;2022-10-16T08:11:12;1.20;;;1.20;;
20146;SDS011;10234;50.856;15.716;2022-10-16T08:13:40;1.30;;;1.30;;
20146;SDS011;10234;50.856;15.716;2022-10-16T08:16:08;1.23;;;1.23;;
20146;SDS011;10234;50.856;15.716;2022-10-16T08:18:36;1.30;;;1.30;;
20146;SDS011;10234;50.856;15.716;2022-10-16T08:21:04;1.45;;;1.30;;
20146;SDS011;10234;50.856;15.716;2022-10-16T08:23:31;1.13;;;1.13;;
20146;SDS011;10234;50.856;15.716;2022-10-16T08:26:02;1.10;;;1.10;;
20146;SDS011;10234;50.856;15.716;2022-10-16T08:28:30;1.65;;;0.98;;
20146;SDS011;10234;50.856;15.716;2022-10-16T08:31:04;1.00;;;1.00;;
20146;SDS011;10234;50.856;15.716;2022-10-16T08:33:33;1.00;;;0.90;;
20146;SDS011;10234;50.856;15.716;2022-10-16T08:36:00;0.68;;;0.68;;
20146;SDS011;10234;50.856;15.716;2022-10-16T08:38:28;0.60;;;0.60;;
20146;SDS011;10234;50.856;15.716;2022-10-16T08:40:56;0.55;;;0.55;;
20146;SDS011;10234;50.856;15.716;2022-10-16T08:43:41;0.50;;;0.50;;
20146;SDS011;10234;50.856;15.716;2022-10-16T08:46:26;2.83;;;0.85;;
20146;SDS011;10234;50.856;15.716;2022-10-16T08:49:06;0.57;;;0.50;;
20146;SDS011;10234;50.856;15.716;2022-10-16T08:51:39;1.10;;;0.65;;
20146;SDS011;10234;50.856;15.716;2022-10-16T08:54:11;0.47;;;0.47;;
20146;SDS011;10234;50.856;15.716;2022-10-16T08:56:46;0.60;;;0.60;;
20146;SDS011;10234;50.856;15.716;2022-10-16T08:59:14;0.40;;;0.40;;
20146;SDS011;10234;50.856;15.716;2022-10-16T09:01:44;0.40;;;0.40;;
20146;SDS011;10234;50.856;15.716;2022-10-16T09:04:26;0.40;;;0.40;;
20146;SDS011;10234;50.856;15.716;2022-10-16T09:07:15;0.43;;;0.43;;
20146;SDS011;10234;50.856;15.716;2022-10-16T09:09:54;0.30;;;0.30;;
20146;SDS011;10234;50.856;15.716;2022-10-16T09:12:33;0.52;;;0.52;;
20146;SDS011;10234;50.856;15.716;2022-10-16T09:15:07;0.40;;;0.40;;
20146;SDS011;10234;50.856;15.716;2022-10-16T09:17:49;0.40;;;0.40;;
20146;SDS011;10234;50.856;15.716;2022-10-16T09:20:30;0.50;;;0.50;;
20146;SDS011;10234;50.856;15.716;2022-10-16T09:23:08;0.50;;;0.40;;
20146;SDS011;10234;50.856;15.716;2022-10-16T09:25:40;0.95;;;0.50;;
20146;SDS011;10234;50.856;15.716;2022-10-16T09:28:09;0.50;;;0.50;;
20146;SDS011;10234;50.856;15.716;2022-10-16T09:30:36;0.50;;;0.50;;
20146;SDS011;10234;50.856;15.716;2022-10-16T09:33:04;1.02;;;0.60;;
20146;SDS011;10234;50.856;15.716;2022-10-16T09:35:35;0.40;;;0.40;;
20146;SDS011;10234;50.856;15.716;2022-10-16T09:38:04;0.57;;;0.50;;
20146;SDS011;10234;50.856;15.716;2022-10-16T09:40:32;0.50;;;0.50;;
20146;SDS011;10234;50.856;15.716;2022-10-16T09:43:07;0.40;;;0.40;;
20146;SDS011;10234;50.856;15.716;2022-10-16T09:45:53;0.65;;;0.65;;
20146;SDS011;10234;50.856;15.716;2022-10-16T09:48:20;2.05;;;0.40;;
20146;SDS011;10234;50.856;15.716;2022-10-16T09:50:56;0.88;;;0.40;;
20146;SDS011;10234;50.856;15.716;2022-10-16T09:53:24;0.30;;;0.30;;
20146;SDS011;10234;50.856;15.716;2022-10-16T09:56:01;0.70;;;0.70;;
20146;SDS011;10234;50.856;15.716;2022-10-16T09:58:30;0.40;;;0.40;;
20146;SDS011;10234;50.856;15.716;2022-10-16T10:00:58;0.90;;;0.40;;
20146;SDS011;10234;50.856;15.716;2022-10-16T10:06:17;0.28;;;0.28;;
20146;SDS011;10234;50.856;15.716;2022-10-16T10:08:58;1.00;;;0.30;;
20146;SDS011;10234;50.856;15.716;2022-10-16T10:11:40;0.22;;;0.22;;
20146;SDS011;10234;50.856;15.716;2022-10-16T10:14:17;0.40;;;0.40;;
20146;SDS011;10234;50.856;15.716;2022-10-16T10:17:06;0.30;;;0.30;;
20146;SDS011;10234;50.856;15.716;2022-10-16T10:19:42;0.50;;;0.50;;
20146;SDS011;10234;50.856;15.716;2022-10-16T10:22:20;0.32;;;0.32;;
20146;SDS011;10234;50.856;15.716;2022-10-16T10:28:00;0.75;;;0.50;;
20146;SDS011;10234;50.856;15.716;2022-10-16T10:30:50;0.30;;;0.30;;
20146;SDS011;10234;50.856;15.716;2022-10-16T10:33:27;0.30;;;0.30;;
20146;SDS011;10234;50.856;15.716;2022-10-16T10:36:05;0.88;;;0.57;;
20146;SDS011;10234;50.856;15.716;2022-10-16T10:38:49;0.47;;;0.30;;
20146;SDS011;10234;50.856;15.716;2022-10-16T10:41:38;0.47;;;0.30;;
20146;SDS011;10234;50.856;15.716;2022-10-16T10:44:25;0.30;;;0.30;;
20146;SDS011;10234;50.856;15.716;2022-10-16T10:47:05;1.00;;;0.30;;
20146;SDS011;10234;50.856;15.716;2022-10-16T10:49:43;0.30;;;0.30;;
20146;SDS011;10234;50.856;15.716;2022-10-16T10:52:27;0.28;;;0.28;;
20146;SDS011;10234;50.856;15.716;2022-10-16T10:55:20;0.30;;;0.30;;
20146;SDS011;10234;50.856;15.716;2022-10-16T10:57:59;0.35;;;0.35;;
20146;SDS011;10234;50.856;15.716;2022-10-16T11:00:42;0.70;;;0.35;;
20146;SDS011;10234;50.856;15.716;2022-10-16T11:03:22;0.40;;;0.40;;
20146;SDS011;10234;50.856;15.716;2022-10-16T11:06:01;0.38;;;0.38;;
20146;SDS011;10234;50.856;15.716;2022-10-16T11:08:34;0.40;;;0.40;;
20146;SDS011;10234;50.856;15.716;2022-10-16T11:11:06;0.52;;;0.52;;
20146;SDS011;10234;50.856;15.716;2022-10-16T11:13:37;0.70;;;0.60;;
20146;SDS011;10234;50.856;15.716;2022-10-16T11:16:10;0.40;;;0.40;;
20146;SDS011;10234;50.856;15.716;2022-10-16T11:18:43;0.50;;;0.50;;
20146;SDS011;10234;50.856;15.716;2022-10-16T11:21:16;1.13;;;0.40;;
20146;SDS011;10234;50.856;15.716;2022-10-16T11:23:47;0.85;;;0.43;;
20146;SDS011;10234;50.856;15.716;2022-10-16T11:26:23;0.60;;;0.40;;
20146;SDS011;10234;50.856;15.716;2022-10-16T11:28:53;0.30;;;0.30;;
20146;SDS011;10234;50.856;15.716;2022-10-16T11:31:24;0.70;;;0.70;;
20146;SDS011;10234;50.856;15.716;2022-10-16T11:34:00;0.60;;;0.60;;
20146;SDS011;10234;50.856;15.716;2022-10-16T11:36:33;0.60;;;0.60;;
20146;SDS011;10234;50.856;15.716;2022-10-16T11:39:08;0.50;;;0.50;;
20146;SDS011;10234;50.856;15.716;2022-10-16T11:41:47;1.05;;;0.68;;
20146;SDS011;10234;50.856;15.716;2022-10-16T11:44:24;0.68;;;0.60;;
20146;SDS011;10234;50.856;15.716;2022-10-16T11:47:01;1.02;;;0.60;;
20146;SDS011;10234;50.856;15.716;2022-10-16T11:49:36;1.02;;;0.63;;
20146;SDS011;10234;50.856;15.716;2022-10-16T11:52:06;1.67;;;0.70;;
20146;SDS011;10234;50.856;15.716;2022-10-16T11:54:39;1.65;;;0.70;;
20146;SDS011;10234;50.856;15.716;2022-10-16T11:57:14;0.75;;;0.75;;
20146;SDS011;10234;50.856;15.716;2022-10-16T11:59:45;1.88;;;0.80;;
20146;SDS011;10234;50.856;15.716;2022-10-16T12:02:25;0.80;;;0.75;;
20146;SDS011;10234;50.856;15.716;2022-10-16T12:04:59;1.88;;;0.63;;
20146;SDS011;10234;50.856;15.716;2022-10-16T12:07:34;0.60;;;0.60;;
20146;SDS011;10234;50.856;15.716;2022-10-16T12:10:11;0.50;;;0.50;;
20146;SDS011;10234;50.856;15.716;2022-10-16T12:12:48;0.55;;;0.55;;
20146;SDS011;10234;50.856;15.716;2022-10-16T12:15:18;1.02;;;0.68;;
20146;SDS011;10234;50.856;15.716;2022-10-16T12:17:48;0.63;;;0.60;;
20146;SDS011;10234;50.856;15.716;2022-10-16T12:20:20;0.50;;;0.50;;
20146;SDS011;10234;50.856;15.716;2022-10-16T12:22:51;0.50;;;0.50;;
20146;SDS011;10234;50.856;15.716;2022-10-16T12:25:21;0.60;;;0.60;;
20146;SDS011;10234;50.856;15.716;2022-10-16T12:27:57;0.50;;;0.50;;
20146;SDS011;10234;50.856;15.716;2022-10-16T12:30:27;0.75;;;0.60;;
20146;SDS011;10234;50.856;15.716;2022-10-16T12:32:56;0.60;;;0.60;;
20146;SDS011;10234;50.856;15.716;2022-10-16T12:35:25;0.60;;;0.60;;
20146;SDS011;10234;50.856;15.716;2022-10-16T12:37:54;0.60;;;0.60;;
20146;SDS011;10234;50.856;15.716;2022-10-16T12:40:32;0.73;;;0.73;;
20146;SDS011;10234;50.856;15.716;2022-10-16T12:43:12;1.25;;;0.82;;
20146;SDS011;10234;50.856;15.716;2022-10-16T12:45:58;0.70;;;0.70;;
20146;SDS011;10234;50.856;15.716;2022-10-16T12:48:26;2.10;;;0.90;;
20146;SDS011;10234;50.856;15.716;2022-10-16T12:50:54;0.90;;;0.70;;
20146;SDS011;10234;50.856;15.716;2022-10-16T12:53:22;0.60;;;0.60;;
20146;SDS011;10234;50.856;15.716;2022-10-16T12:55:55;1.98;;;0.70;;
20146;SDS011;10234;50.856;15.716;2022-10-16T12:58:41;0.60;;;0.60;;
20146;SDS011;10234;50.856;15.716;2022-10-16T13:01:34;2.65;;;0.80;;
20146;SDS011;10234;50.856;15.716;2022-10-16T13:04:15;1.77;;;0.73;;
20146;SDS011;10234;50.856;15.716;2022-10-16T13:06:58;0.82;;;0.55;;
20146;SDS011;10234;50.856;15.716;2022-10-16T13:09:37;3.30;;;0.70;;
20146;SDS011;10234;50.856;15.716;2022-10-16T13:12:25;0.60;;;0.60;;
20146;SDS011;10234;50.856;15.716;2022-10-16T13:18:13;3.25;;;0.60;;
20146;SDS011;10234;50.856;15.716;2022-10-16T13:20:46;2.72;;;0.75;;
20146;SDS011;10234;50.856;15.716;2022-10-16T13:23:31;1.00;;;0.90;;
20146;SDS011;10234;50.856;15.716;2022-10-16T13:26:07;0.60;;;0.60;;
20146;SDS011;10234;50.856;15.716;2022-10-16T13:28:41;1.23;;;0.73;;
20146;SDS011;10234;50.856;15.716;2022-10-16T13:31:12;0.80;;;0.80;;
20146;SDS011;10234;50.856;15.716;2022-10-16T13:33:45;1.23;;;0.82;;
20146;SDS011;10234;50.856;15.716;2022-10-16T13:36:21;0.60;;;0.60;;
20146;SDS011;10234;50.856;15.716;2022-10-16T13:38:49;2.42;;;0.70;;
20146;SDS011;10234;50.856;15.716;2022-10-16T13:41:30;1.33;;;0.75;;
20146;SDS011;10234;50.856;15.716;2022-10-16T13:43:57;1.02;;;0.90;;
20146;SDS011;10234;50.856;15.716;2022-10-16T13:46:26;0.80;;;0.80;;
20146;SDS011;10234;50.856;15.716;2022-10-16T13:48:58;1.67;;;0.80;;
20146;SDS011;10234;50.856;15.716;2022-10-16T13:51:25;0.77;;;0.77;;
20146;SDS011;10234;50.856;15.716;2022-10-16T13:53:54;1.02;;;0.77;;
20146;SDS011;10234;50.856;15.716;2022-10-16T13:56:22;0.90;;;0.90;;
20146;SDS011;10234;50.856;15.716;2022-10-16T13:58:59;0.70;;;0.70;;
20146;SDS011;10234;50.856;15.716;2022-10-16T14:01:28;1.25;;;0.70;;
20146;SDS011;10234;50.856;15.716;2022-10-16T14:04:03;1.67;;;0.90;;
20146;SDS011;10234;50.856;15.716;2022-10-16T14:06:32;1.13;;;0.73;;
20146;SDS011;10234;50.856;15.716;2022-10-16T14:09:01;1.77;;;1.00;;
20146;SDS011;10234;50.856;15.716;2022-10-16T14:11:32;0.85;;;0.75;;
20146;SDS011;10234;50.856;15.716;2022-10-16T14:13:59;0.60;;;0.52;;
20146;SDS011;10234;50.856;15.716;2022-10-16T14:16:29;1.58;;;1.00;;
20146;SDS011;10234;50.856;15.716;2022-10-16T14:18:58;1.85;;;1.10;;
20146;SDS011;10234;50.856;15.716;2022-10-16T14:21:27;0.70;;;0.70;;
20146;SDS011;10234;50.856;15.716;2022-10-16T14:23:54;0.95;;;0.73;;
20146;SDS011;10234;50.856;15.716;2022-10-16T14:26:22;1.50;;;0.82;;
20146;SDS011;10234;50.856;15.716;2022-10-16T14:29:01;0.80;;;0.80;;
20146;SDS011;10234;50.856;15.716;2022-10-16T14:31:37;0.60;;;0.60;;
20146;SDS011;10234;50.856;15.716;2022-10-16T14:34:05;0.73;;;0.70;;
20146;SDS011;10234;50.856;15.716;2022-10-16T14:36:50;0.75;;;0.60;;
20146;SDS011;10234;50.856;15.716;2022-10-16T14:39:18;0.85;;;0.80;;
20146;SDS011;10234;50.856;15.716;2022-10-16T14:41:47;1.15;;;0.70;;
20146;SDS011;10234;50.856;15.716;2022-10-16T14:44:16;0.70;;;0.70;;
20146;SDS011;10234;50.856;15.716;2022-10-16T14:46:46;2.88;;;0.80;;
20146;SDS011;10234;50.856;15.716;2022-10-16T14:49:15;1.50;;;0.65;;
20146;SDS011;10234;50.856;15.716;2022-10-16T14:51:45;1.35;;;0.90;;
20146;SDS011;10234;50.856;15.716;2022-10-16T14:54:12;1.05;;;0.70;;
20146;SDS011;10234;50.856;15.716;2022-10-16T14:56:44;0.70;;;0.70;;
20146;SDS011;10234;50.856;15.716;2022-10-16T14:59:14;1.52;;;0.90;;
20146;SDS011;10234;50.856;15.716;2022-10-16T15:01:43;0.93;;;0.70;;
20146;SDS011;10234;50.856;15.716;2022-10-16T15:04:12;0.90;;;0.90;;